sensor_id;sensor_type;location;lat;lon;timestamp;pressure;altitude;pressure_sealevel;temperature;humidity
49813;BME280;35706;52.100;5.056;2023-06-19T00:00:22;100650.19;;;24.18;46.53
49813;BME280;35706;52.100;5.056;2023-06-19T00:01:23;100649.47;;;24.23;46.32
49813;BME280;35706;52.100;5.056;2023-06-19T00:02:23;100651.84;;;24.31;46.26
49813;BME280;35706;52.100;5.056;2023-06-19T00:03:23;100664.34;;;24.26;46.99
49813;BME280;35706;52.100;5.056;2023-06-19T00:04:23;100655.53;;;24.07;47.06
49813;BME280;35706;52.100;5.056;2023-06-19T00:05:24;100661.03;;;24.12;47.51
49813;BME280;35706;52.100;5.056;2023-06-19T00:06:25;100666.59;;;23.98;47.86
49813;BME280;35706;52.100;5.056;2023-06-19T00:07:25;100666.66;;;23.80;48.70
49813;BME280;35706;52.100;5.056;2023-06-19T00:08:25;100664.19;;;23.78;48.79
49813;BME280;35706;52.100;5.056;2023-06-19T00:09:26;100695.50;;;23.66;49.11
49813;BME280;35706;52.100;5.056;2023-06-19T00:10:26;100681.66;;;23.69;49.14
49813;BME280;35706;52.100;5.056;2023-06-19T00:11:26;100664.28;;;23.53;49.55
49813;BME280;35706;52.100;5.056;2023-06-19T00:12:27;100671.31;;;23.54;49.57
49813;BME280;35706;52.100;5.056;2023-06-19T00:13:27;100658.25;;;23.76;49.01
49813;BME280;35706;52.100;5.056;2023-06-19T00:14:27;100674.78;;;23.73;49.04
49813;BME280;35706;52.100;5.056;2023-06-19T00:15:28;100678.38;;;23.67;49.54
49813;BME280;35706;52.100;5.056;2023-06-19T00:16:29;100675.19;;;23.58;50.01
49813;BME280;35706;52.100;5.056;2023-06-19T00:17:29;100673.13;;;23.72;49.52
49813;BME280;35706;52.100;5.056;2023-06-19T00:18:30;100666.13;;;23.71;49.54
49813;BME280;35706;52.100;5.056;2023-06-19T00:19:30;100674.81;;;23.36;50.98
49813;BME280;35706;52.100;5.056;2023-06-19T00:20:30;100677.06;;;23.21;51.53
49813;BME280;35706;52.100;5.056;2023-06-19T00:21:31;100668.59;;;23.24;51.51
49813;BME280;35706;52.100;5.056;2023-06-19T00:22:31;100669.78;;;23.28;51.22
49813;BME280;35706;52.100;5.056;2023-06-19T00:23:32;100661.06;;;23.33;50.99
49813;BME280;35706;52.100;5.056;2023-06-19T00:24:32;100660.56;;;23.54;50.40
49813;BME280;35706;52.100;5.056;2023-06-19T00:25:32;100667.94;;;23.59;50.38
49813;BME280;35706;52.100;5.056;2023-06-19T00:26:32;100663.88;;;23.38;51.37
49813;BME280;35706;52.100;5.056;2023-06-19T00:27:33;100668.84;;;23.53;51.02
49813;BME280;35706;52.100;5.056;2023-06-19T00:28:33;100664.63;;;23.45;51.66
49813;BME280;35706;52.100;5.056;2023-06-19T00:29:34;100659.69;;;23.61;51.00
49813;BME280;35706;52.100;5.056;2023-06-19T00:30:34;100676.69;;;23.17;52.69
49813;BME280;35706;52.100;5.056;2023-06-19T00:31:34;100671.22;;;22.87;53.62
49813;BME280;35706;52.100;5.056;2023-06-19T00:32:37;100680.94;;;23.07;53.32
49813;BME280;35706;52.100;5.056;2023-06-19T00:33:46;100671.88;;;23.08;53.51
49813;BME280;35706;52.100;5.056;2023-06-19T00:34:50;100674.19;;;22.79;54.73
49813;BME280;35706;52.100;5.056;2023-06-19T00:35:51;100687.09;;;22.64;55.25
49813;BME280;35706;52.100;5.056;2023-06-19T00:36:52;100676.09;;;22.72;55.23
49813;BME280;35706;52.100;5.056;2023-06-19T00:37:57;100669.19;;;22.83;54.51
49813;BME280;35706;52.100;5.056;2023-06-19T00:39:00;100665.94;;;22.81;55.01
49813;BME280;35706;52.100;5.056;2023-06-19T00:40:01;100663.31;;;22.74;55.30
49813;BME280;35706;52.100;5.056;2023-06-19T00:41:01;100684.97;;;22.72;55.60
49813;BME280;35706;52.100;5.056;2023-06-19T00:42:01;100671.56;;;22.72;55.75
49813;BME280;35706;52.100;5.056;2023-06-19T00:43:01;100681.00;;;22.56;56.39
49813;BME280;35706;52.100;5.056;2023-06-19T00:44:03;100673.50;;;22.65;56.31
49813;BME280;35706;52.100;5.056;2023-06-19T00:45:04;100678.84;;;22.65;56.47
49813;BME280;35706;52.100;5.056;2023-06-19T00:46:04;100679.19;;;22.75;55.93
49813;BME280;35706;52.100;5.056;2023-06-19T00:47:04;100691.53;;;22.51;57.25
49813;BME280;35706;52.100;5.056;2023-06-19T00:48:05;100681.94;;;22.37;58.26
49813;BME280;35706;52.100;5.056;2023-06-19T00:49:09;100668.22;;;22.52;57.52
49813;BME280;35706;52.100;5.056;2023-06-19T00:50:10;100680.06;;;22.44;58.16
49813;BME280;35706;52.100;5.056;2023-06-19T00:51:10;100675.25;;;22.53;57.82
49813;BME280;35706;52.100;5.056;2023-06-19T00:52:10;100673.84;;;22.50;58.23
49813;BME280;35706;52.100;5.056;2023-06-19T00:53:11;100676.25;;;22.59;57.86
49813;BME280;35706;52.100;5.056;2023-06-19T00:54:12;100671.47;;;22.35;58.76
49813;BME280;35706;52.100;5.056;2023-06-19T00:55:13;100694.53;;;22.62;58.21
49813;BME280;35706;52.100;5.056;2023-06-19T00:56:15;100694.38;;;22.31;59.15
49813;BME280;35706;52.100;5.056;2023-06-19T00:57:18;100685.09;;;22.59;58.76
49813;BME280;35706;52.100;5.056;2023-06-19T00:58:20;100693.56;;;22.31;59.64
49813;BME280;35706;52.100;5.056;2023-06-19T00:59:20;100686.22;;;22.45;58.96
49813;BME280;35706;52.100;5.056;2023-06-19T01:00:22;100692.19;;;22.47;59.25
49813;BME280;35706;52.100;5.056;2023-06-19T01:01:22;100704.47;;;22.29;60.44
49813;BME280;35706;52.100;5.056;2023-06-19T01:02:26;100693.59;;;22.17;60.98
49813;BME280;35706;52.100;5.056;2023-06-19T01:03:26;100711.19;;;22.07;61.62
49813;BME280;35706;52.100;5.056;2023-06-19T01:04:27;100712.31;;;21.86;63.06
49813;BME280;35706;52.100;5.056;2023-06-19T01:05:27;100711.00;;;22.02;62.49
49813;BME280;35706;52.100;5.056;2023-06-19T01:06:32;100704.16;;;21.67;64.03
49813;BME280;35706;52.100;5.056;2023-06-19T01:07:46;100701.22;;;21.82;63.53
49813;BME280;35706;52.100;5.056;2023-06-19T01:08:59;100701.72;;;21.66;64.44
49813;BME280;35706;52.100;5.056;2023-06-19T01:10:05;100701.72;;;21.66;64.57
49813;BME280;35706;52.100;5.056;2023-06-19T01:11:07;100712.00;;;21.69;65.03
49813;BME280;35706;52.100;5.056;2023-06-19T01:12:16;100712.63;;;21.64;65.34
49813;BME280;35706;52.100;5.056;2023-06-19T01:13:28;100711.28;;;21.48;66.19
49813;BME280;35706;52.100;5.056;2023-06-19T01:14:59;100711.41;;;21.60;65.86
49813;BME280;35706;52.100;5.056;2023-06-19T01:16:02;100713.56;;;21.83;65.24
49813;BME280;35706;52.100;5.056;2023-06-19T01:17:03;100699.69;;;21.54;66.78
49813;BME280;35706;52.100;5.056;2023-06-19T01:18:04;100720.41;;;21.72;66.18
49813;BME280;35706;52.100;5.056;2023-06-19T01:19:09;100713.16;;;21.80;65.84
49813;BME280;35706;52.100;5.056;2023-06-19T01:20:10;100707.91;;;21.66;66.79
49813;BME280;35706;52.100;5.056;2023-06-19T01:21:15;100716.63;;;21.48;67.39
49813;BME280;35706;52.100;5.056;2023-06-19T01:22:29;100737.59;;;21.45;67.91
49813;BME280;35706;52.100;5.056;2023-06-19T01:23:29;100722.38;;;21.45;67.82
49813;BME280;35706;52.100;5.056;2023-06-19T01:24:29;100725.56;;;21.67;66.89
49813;BME280;35706;52.100;5.056;2023-06-19T01:25:30;100716.22;;;21.38;68.54
49813;BME280;35706;52.100;5.056;2023-06-19T01:26:30;100722.13;;;21.53;67.77
49813;BME280;35706;52.100;5.056;2023-06-19T01:27:31;100734.66;;;21.60;67.54
49813;BME280;35706;52.100;5.056;2023-06-19T01:28:31;100721.31;;;21.53;67.84
49813;BME280;35706;52.100;5.056;2023-06-19T01:29:31;100718.63;;;21.60;67.71
49813;BME280;35706;52.100;5.056;2023-06-19T01:30:33;100723.03;;;21.27;68.97
49813;BME280;35706;52.100;5.056;2023-06-19T01:31:40;100717.84;;;21.39;68.87
49813;BME280;35706;52.100;5.056;2023-06-19T01:34:17;100731.00;;;21.41;68.72
49813;BME280;35706;52.100;5.056;2023-06-19T01:35:23;100719.69;;;21.39;68.93
49813;BME280;35706;52.100;5.056;2023-06-19T01:36:24;100732.44;;;21.37;68.97
49813;BME280;35706;52.100;5.056;2023-06-19T01:37:25;100715.53;;;21.56;68.26
49813;BME280;35706;52.100;5.056;2023-06-19T01:38:29;100710.16;;;21.63;68.10
49813;BME280;35706;52.100;5.056;2023-06-19T01:39:32;100735.13;;;21.37;69.54
49813;BME280;35706;52.100;5.056;2023-06-19T01:40:33;100726.31;;;21.23;70.35
49813;BME280;35706;52.100;5.056;2023-06-19T01:41:34;100717.66;;;21.21;70.68
49813;BME280;35706;52.100;5.056;2023-06-19T01:42:35;100726.50;;;21.28;70.77
49813;BME280;35706;52.100;5.056;2023-06-19T01:43:37;100706.78;;;21.22;70.81
49813;BME280;35706;52.100;5.056;2023-06-19T01:44:38;100718.88;;;21.38;70.25
49813;BME280;35706;52.100;5.056;2023-06-19T01:45:39;100710.88;;;21.45;70.56
49813;BME280;35706;52.100;5.056;2023-06-19T01:46:40;100717.63;;;21.41;70.91
49813;BME280;35706;52.100;5.056;2023-06-19T01:47:40;100710.69;;;21.20;71.89
49813;BME280;35706;52.100;5.056;2023-06-19T01:48:40;100721.78;;;21.23;71.91
49813;BME280;35706;52.100;5.056;2023-06-19T01:49:41;100724.09;;;21.06;72.65
49813;BME280;35706;52.100;5.056;2023-06-19T01:50:45;100714.22;;;21.00;73.07
49813;BME280;35706;52.100;5.056;2023-06-19T01:51:46;100713.59;;;21.11;72.67
49813;BME280;35706;52.100;5.056;2023-06-19T01:52:46;100725.72;;;21.14;72.56
49813;BME280;35706;52.100;5.056;2023-06-19T01:53:46;100713.19;;;21.01;73.32
49813;BME280;35706;52.100;5.056;2023-06-19T01:54:46;100719.97;;;21.17;72.60
49813;BME280;35706;52.100;5.056;2023-06-19T01:55:47;100711.47;;;21.33;71.77
49813;BME280;35706;52.100;5.056;2023-06-19T01:56:47;100714.16;;;21.27;72.36
49813;BME280;35706;52.100;5.056;2023-06-19T01:57:48;100713.38;;;21.20;72.78
49813;BME280;35706;52.100;5.056;2023-06-19T01:58:48;100707.56;;;21.36;72.28
49813;BME280;35706;52.100;5.056;2023-06-19T01:59:48;100710.06;;;21.44;72.18
49813;BME280;35706;52.100;5.056;2023-06-19T02:00:48;100712.09;;;21.29;73.16
49813;BME280;35706;52.100;5.056;2023-06-19T02:01:49;100713.50;;;21.51;71.73
49813;BME280;35706;52.100;5.056;2023-06-19T02:02:49;100721.19;;;21.21;73.46
49813;BME280;35706;52.100;5.056;2023-06-19T02:03:49;100732.94;;;21.00;74.52
49813;BME280;35706;52.100;5.056;2023-06-19T02:04:50;100730.19;;;21.27;73.42
49813;BME280;35706;52.100;5.056;2023-06-19T02:05:50;100728.63;;;21.12;74.45
49813;BME280;35706;52.100;5.056;2023-06-19T02:06:50;100722.03;;;21.15;74.21
49813;BME280;35706;52.100;5.056;2023-06-19T02:07:50;100718.09;;;21.24;73.60
49813;BME280;35706;52.100;5.056;2023-06-19T02:08:51;100713.97;;;21.22;73.94
49813;BME280;35706;52.100;5.056;2023-06-19T02:09:51;100721.44;;;21.00;74.91
49813;BME280;35706;52.100;5.056;2023-06-19T02:10:51;100730.44;;;21.05;74.75
49813;BME280;35706;52.100;5.056;2023-06-19T02:11:51;100725.91;;;21.26;74.01
49813;BME280;35706;52.100;5.056;2023-06-19T02:12:52;100759.44;;;21.15;74.83
49813;BME280;35706;52.100;5.056;2023-06-19T02:13:52;100735.16;;;21.10;74.93
49813;BME280;35706;52.100;5.056;2023-06-19T02:14:52;100725.47;;;21.29;73.79
49813;BME280;35706;52.100;5.056;2023-06-19T02:15:52;100729.41;;;21.13;74.62
49813;BME280;35706;52.100;5.056;2023-06-19T02:16:53;100729.41;;;21.20;74.37
49813;BME280;35706;52.100;5.056;2023-06-19T02:17:56;100742.78;;;21.13;74.91
49813;BME280;35706;52.100;5.056;2023-06-19T02:18:57;100729.22;;;21.08;74.84
49813;BME280;35706;52.100;5.056;2023-06-19T02:19:57;100732.31;;;21.05;75.32
49813;BME280;35706;52.100;5.056;2023-06-19T02:20:57;100728.59;;;20.99;75.63
49813;BME280;35706;52.100;5.056;2023-06-19T02:21:58;100732.72;;;20.95;75.76
49813;BME280;35706;52.100;5.056;2023-06-19T02:22:58;100738.88;;;20.89;76.39
49813;BME280;35706;52.100;5.056;2023-06-19T02:23:58;100735.00;;;20.98;75.91
49813;BME280;35706;52.100;5.056;2023-06-19T02:24:58;100730.88;;;21.09;75.33
49813;BME280;35706;52.100;5.056;2023-06-19T02:25:59;100721.16;;;21.28;74.52
49813;BME280;35706;52.100;5.056;2023-06-19T02:26:59;100747.09;;;21.07;75.32
49813;BME280;35706;52.100;5.056;2023-06-19T02:28:00;100734.56;;;21.01;75.95
49813;BME280;35706;52.100;5.056;2023-06-19T02:29:01;100727.59;;;21.07;75.56
49813;BME280;35706;52.100;5.056;2023-06-19T02:30:01;100725.25;;;21.30;74.52
49813;BME280;35706;52.100;5.056;2023-06-19T02:31:01;100729.63;;;21.05;75.75
49813;BME280;35706;52.100;5.056;2023-06-19T02:32:02;100728.97;;;21.23;75.06
49813;BME280;35706;52.100;5.056;2023-06-19T02:33:02;100740.94;;;21.13;75.22
49813;BME280;35706;52.100;5.056;2023-06-19T02:34:03;100754.50;;;20.99;76.24
49813;BME280;35706;52.100;5.056;2023-06-19T02:35:06;100739.72;;;20.96;76.28
49813;BME280;35706;52.100;5.056;2023-06-19T02:36:08;100729.81;;;21.10;75.73
49813;BME280;35706;52.100;5.056;2023-06-19T02:37:09;100741.09;;;21.19;75.67
49813;BME280;35706;52.100;5.056;2023-06-19T02:38:10;100734.13;;;21.18;75.67
49813;BME280;35706;52.100;5.056;2023-06-19T02:39:12;100740.53;;;21.03;76.03
49813;BME280;35706;52.100;5.056;2023-06-19T02:40:13;100723.44;;;21.24;75.05
49813;BME280;35706;52.100;5.056;2023-06-19T02:41:14;100725.28;;;21.24;74.85
49813;BME280;35706;52.100;5.056;2023-06-19T02:42:15;100739.69;;;21.09;75.88
49813;BME280;35706;52.100;5.056;2023-06-19T02:43:15;100727.97;;;21.17;75.54
49813;BME280;35706;52.100;5.056;2023-06-19T02:44:15;100736.41;;;21.07;76.56
49813;BME280;35706;52.100;5.056;2023-06-19T02:45:16;100760.03;;;21.24;75.41
49813;BME280;35706;52.100;5.056;2023-06-19T02:46:16;100750.81;;;21.06;76.68
49813;BME280;35706;52.100;5.056;2023-06-19T02:47:16;100747.09;;;21.14;75.94
49813;BME280;35706;52.100;5.056;2023-06-19T02:48:17;100747.47;;;21.31;75.22
49813;BME280;35706;52.100;5.056;2023-06-19T02:49:17;100745.19;;;21.41;74.62
49813;BME280;35706;52.100;5.056;2023-06-19T02:50:18;100746.44;;;21.39;74.96
49813;BME280;35706;52.100;5.056;2023-06-19T02:51:18;100735.97;;;21.24;75.68
49813;BME280;35706;52.100;5.056;2023-06-19T02:52:18;100746.66;;;21.30;75.51
49813;BME280;35706;52.100;5.056;2023-06-19T02:53:18;100752.84;;;21.44;74.75
49813;BME280;35706;52.100;5.056;2023-06-19T02:54:19;100749.53;;;21.29;75.91
49813;BME280;35706;52.100;5.056;2023-06-19T02:55:19;100751.84;;;20.99;77.17
49813;BME280;35706;52.100;5.056;2023-06-19T02:56:19;100748.97;;;20.87;78.42
49813;BME280;35706;52.100;5.056;2023-06-19T02:57:20;100747.75;;;20.96;77.85
49813;BME280;35706;52.100;5.056;2023-06-19T02:58:20;100754.06;;;21.22;76.43
49813;BME280;35706;52.100;5.056;2023-06-19T02:59:20;100775.47;;;21.22;76.33
49813;BME280;35706;52.100;5.056;2023-06-19T03:00:21;100761.25;;;21.28;76.30
49813;BME280;35706;52.100;5.056;2023-06-19T03:01:21;100749.75;;;21.21;76.89
49813;BME280;35706;52.100;5.056;2023-06-19T03:02:21;100768.31;;;20.96;78.12
49813;BME280;35706;52.100;5.056;2023-06-19T03:03:21;100762.13;;;20.95;78.55
49813;BME280;35706;52.100;5.056;2023-06-19T03:04:23;100761.72;;;20.98;78.77
49813;BME280;35706;52.100;5.056;2023-06-19T03:05:23;100759.22;;;21.03;78.31
49813;BME280;35706;52.100;5.056;2023-06-19T03:06:23;100771.78;;;21.09;78.26
49813;BME280;35706;52.100;5.056;2023-06-19T03:07:24;100785.13;;;20.76;79.89
49813;BME280;35706;52.100;5.056;2023-06-19T03:08:28;100769.94;;;20.77;80.70
49813;BME280;35706;52.100;5.056;2023-06-19T03:09:29;100794.81;;;20.84;80.68
49813;BME280;35706;52.100;5.056;2023-06-19T03:10:29;100790.28;;;20.78;81.16
49813;BME280;35706;52.100;5.056;2023-06-19T03:11:29;100775.25;;;20.70;82.16
49813;BME280;35706;52.100;5.056;2023-06-19T03:12:30;100759.84;;;20.59;82.74
49813;BME280;35706;52.100;5.056;2023-06-19T03:13:52;100768.28;;;20.62;83.02
49813;BME280;35706;52.100;5.056;2023-06-19T03:14:53;100758.22;;;20.64;83.40
49813;BME280;35706;52.100;5.056;2023-06-19T03:15:53;100769.69;;;20.51;84.05
49813;BME280;35706;52.100;5.056;2023-06-19T03:16:53;100773.00;;;20.60;83.58
49813;BME280;35706;52.100;5.056;2023-06-19T03:17:54;100763.13;;;20.61;83.85
49813;BME280;35706;52.100;5.056;2023-06-19T03:18:54;100758.22;;;20.58;84.32
49813;BME280;35706;52.100;5.056;2023-06-19T03:19:54;100785.75;;;20.58;84.40
49813;BME280;35706;52.100;5.056;2023-06-19T03:20:54;100760.28;;;20.62;84.40
49813;BME280;35706;52.100;5.056;2023-06-19T03:21:55;100778.50;;;20.52;84.72
49813;BME280;35706;52.100;5.056;2023-06-19T03:22:55;100805.00;;;20.53;84.96
49813;BME280;35706;52.100;5.056;2023-06-19T03:23:55;100775.41;;;20.42;86.01
49813;BME280;35706;52.100;5.056;2023-06-19T03:24:56;100788.56;;;20.37;86.35
49813;BME280;35706;52.100;5.056;2023-06-19T03:25:56;100794.50;;;20.32;87.03
49813;BME280;35706;52.100;5.056;2023-06-19T03:26:57;100768.25;;;20.49;86.24
49813;BME280;35706;52.100;5.056;2023-06-19T03:27:58;100787.94;;;20.41;86.60
49813;BME280;35706;52.100;5.056;2023-06-19T03:28:58;100776.66;;;20.46;86.45
49813;BME280;35706;52.100;5.056;2023-06-19T03:29:59;100782.66;;;20.61;85.46
49813;BME280;35706;52.100;5.056;2023-06-19T03:30:59;100785.75;;;20.65;85.51
49813;BME280;35706;52.100;5.056;2023-06-19T03:32:00;100778.34;;;20.67;85.71
49813;BME280;35706;52.100;5.056;2023-06-19T03:33:00;100782.63;;;20.54;86.17
49813;BME280;35706;52.100;5.056;2023-06-19T03:34:01;100776.22;;;20.36;87.30
49813;BME280;35706;52.100;5.056;2023-06-19T03:35:02;100772.72;;;20.28;88.24
49813;BME280;35706;52.100;5.056;2023-06-19T03:36:02;100783.78;;;20.25;88.21
49813;BME280;35706;52.100;5.056;2023-06-19T03:37:03;100776.19;;;20.29;88.54
49813;BME280;35706;52.100;5.056;2023-06-19T03:38:04;100782.34;;;20.29;89.03
49813;BME280;35706;52.100;5.056;2023-06-19T03:39:05;100776.81;;;20.24;89.28
49813;BME280;35706;52.100;5.056;2023-06-19T03:40:06;100807.06;;;20.45;88.21
49813;BME280;35706;52.100;5.056;2023-06-19T03:41:06;100824.03;;;20.17;89.37
49813;BME280;35706;52.100;5.056;2023-06-19T03:42:07;100808.19;;;20.09;90.06
49813;BME280;35706;52.100;5.056;2023-06-19T03:43:07;100798.53;;;20.14;90.39
49813;BME280;35706;52.100;5.056;2023-06-19T03:44:07;100798.00;;;20.32;89.38
49813;BME280;35706;52.100;5.056;2023-06-19T03:45:08;100786.06;;;20.35;89.21
49813;BME280;35706;52.100;5.056;2023-06-19T03:46:08;100807.22;;;20.30;89.43
49813;BME280;35706;52.100;5.056;2023-06-19T03:47:08;100793.72;;;20.51;88.25
49813;BME280;35706;52.100;5.056;2023-06-19T03:48:09;100834.63;;;20.59;87.25
49813;BME280;35706;52.100;5.056;2023-06-19T03:49:09;100807.25;;;20.50;88.35
49813;BME280;35706;52.100;5.056;2023-06-19T03:50:09;100823.72;;;20.53;87.85
49813;BME280;35706;52.100;5.056;2023-06-19T03:51:10;100807.22;;;20.30;89.67
49813;BME280;35706;52.100;5.056;2023-06-19T03:52:11;100818.09;;;20.28;89.80
49813;BME280;35706;52.100;5.056;2023-06-19T03:53:11;100812.94;;;20.27;89.59
49813;BME280;35706;52.100;5.056;2023-06-19T03:54:12;100820.91;;;20.13;90.41
49813;BME280;35706;52.100;5.056;2023-06-19T03:55:12;100813.19;;;20.32;89.87
49813;BME280;35706;52.100;5.056;2023-06-19T03:56:13;100819.16;;;20.34;89.65
49813;BME280;35706;52.100;5.056;2023-06-19T03:57:13;100813.38;;;20.30;89.47
49813;BME280;35706;52.100;5.056;2023-06-19T03:58:13;100838.19;;;20.24;89.47
49813;BME280;35706;52.100;5.056;2023-06-19T03:59:14;100829.38;;;20.24;90.28
49813;BME280;35706;52.100;5.056;2023-06-19T04:00:16;100813.81;;;20.34;89.51
49813;BME280;35706;52.100;5.056;2023-06-19T04:01:18;100829.84;;;20.41;89.30
49813;BME280;35706;52.100;5.056;2023-06-19T04:02:18;100819.53;;;20.38;88.56
49813;BME280;35706;52.100;5.056;2023-06-19T04:03:18;100824.28;;;20.42;88.39
49813;BME280;35706;52.100;5.056;2023-06-19T04:04:19;100843.16;;;20.34;88.81
49813;BME280;35706;52.100;5.056;2023-06-19T04:05:19;100824.09;;;20.50;87.62
49813;BME280;35706;52.100;5.056;2023-06-19T04:06:20;100830.03;;;20.39;88.34
49813;BME280;35706;52.100;5.056;2023-06-19T04:07:20;100848.44;;;20.21;89.07
49813;BME280;35706;52.100;5.056;2023-06-19T04:08:20;100845.78;;;20.27;88.86
49813;BME280;35706;52.100;5.056;2023-06-19T04:09:20;100828.38;;;20.38;88.19
49813;BME280;35706;52.100;5.056;2023-06-19T04:10:21;100834.38;;;20.47;87.48
49813;BME280;35706;52.100;5.056;2023-06-19T04:11:21;100836.78;;;20.28;88.27
49813;BME280;35706;52.100;5.056;2023-06-19T04:12:21;100836.78;;;20.28;88.64
49813;BME280;35706;52.100;5.056;2023-06-19T04:13:21;100839.19;;;20.23;88.68
49813;BME280;35706;52.100;5.056;2023-06-19T04:14:22;100871.28;;;20.30;88.42
49813;BME280;35706;52.100;5.056;2023-06-19T04:15:23;100841.06;;;20.23;88.68
49813;BME280;35706;52.100;5.056;2023-06-19T04:16:23;100847.56;;;20.07;89.91
49813;BME280;35706;52.100;5.056;2023-06-19T04:17:24;100867.69;;;20.09;89.42
49813;BME280;35706;52.100;5.056;2023-06-19T04:18:24;100874.25;;;20.07;89.46
49813;BME280;35706;52.100;5.056;2023-06-19T04:19:24;100862.75;;;20.06;89.59
49813;BME280;35706;52.100;5.056;2023-06-19T04:20:24;100889.22;;;20.08;89.54
49813;BME280;35706;52.100;5.056;2023-06-19T04:21:25;100864.13;;;19.96;90.23
49813;BME280;35706;52.100;5.056;2023-06-19T04:22:26;100858.28;;;20.20;89.16
49813;BME280;35706;52.100;5.056;2023-06-19T04:23:26;100863.84;;;20.25;88.71
49813;BME280;35706;52.100;5.056;2023-06-19T04:24:26;100876.75;;;20.15;88.94
49813;BME280;35706;52.100;5.056;2023-06-19T04:25:26;100851.28;;;20.12;89.45
49813;BME280;35706;52.100;5.056;2023-06-19T04:26:27;100861.28;;;19.97;90.17
49813;BME280;35706;52.100;5.056;2023-06-19T04:27:27;100858.59;;;19.97;90.17
49813;BME280;35706;52.100;5.056;2023-06-19T04:28:27;100868.28;;;20.05;89.72
49813;BME280;35706;52.100;5.056;2023-06-19T04:29:27;100870.69;;;19.93;90.17
49813;BME280;35706;52.100;5.056;2023-06-19T04:30:31;100848.56;;;19.99;90.08
49813;BME280;35706;52.100;5.056;2023-06-19T04:31:32;100872.75;;;19.98;89.68
49813;BME280;35706;52.100;5.056;2023-06-19T04:32:33;100866.59;;;19.97;89.61
49813;BME280;35706;52.100;5.056;2023-06-19T04:33:35;100891.88;;;20.01;89.16
49813;BME280;35706;52.100;5.056;2023-06-19T04:34:35;100880.97;;;19.96;89.39
49813;BME280;35706;52.100;5.056;2023-06-19T04:35:35;100867.22;;;19.99;89.41
49813;BME280;35706;52.100;5.056;2023-06-19T04:36:40;100886.97;;;20.05;88.86
49813;BME280;35706;52.100;5.056;2023-06-19T04:37:41;100879.91;;;19.90;89.80
49813;BME280;35706;52.100;5.056;2023-06-19T04:38:41;100882.22;;;20.00;89.32
49813;BME280;35706;52.100;5.056;2023-06-19T04:39:42;100888.41;;;20.07;88.51
49813;BME280;35706;52.100;5.056;2023-06-19T04:40:42;100891.66;;;19.96;88.76
49813;BME280;35706;52.100;5.056;2023-06-19T04:41:46;100884.72;;;20.08;87.96
49813;BME280;35706;52.100;5.056;2023-06-19T04:42:46;100881.47;;;20.13;87.69
49813;BME280;35706;52.100;5.056;2023-06-19T04:43:46;100889.19;;;20.01;87.89
49813;BME280;35706;52.100;5.056;2023-06-19T04:44:47;100889.00;;;20.03;87.75
49813;BME280;35706;52.100;5.056;2023-06-19T04:45:48;100895.22;;;20.17;87.17
49813;BME280;35706;52.100;5.056;2023-06-19T04:46:48;100909.56;;;20.09;87.21
49813;BME280;35706;52.100;5.056;2023-06-19T04:47:48;100894.13;;;20.04;87.61
49813;BME280;35706;52.100;5.056;2023-06-19T04:48:49;100890.72;;;20.17;86.88
49813;BME280;35706;52.100;5.056;2023-06-19T04:49:50;100909.78;;;20.14;86.85
49813;BME280;35706;52.100;5.056;2023-06-19T04:50:52;100907.53;;;20.11;87.02
49813;BME280;35706;52.100;5.056;2023-06-19T04:51:52;100900.03;;;20.28;85.76
49813;BME280;35706;52.100;5.056;2023-06-19T04:52:52;100905.53;;;20.20;86.12
49813;BME280;35706;52.100;5.056;2023-06-19T04:53:52;100919.81;;;20.05;86.54
49813;BME280;35706;52.100;5.056;2023-06-19T04:54:53;100930.81;;;19.96;86.68
49813;BME280;35706;52.100;5.056;2023-06-19T04:55:54;100913.00;;;19.96;86.23
49813;BME280;35706;52.100;5.056;2023-06-19T04:56:55;100927.28;;;19.88;85.98
49813;BME280;35706;52.100;5.056;2023-06-19T04:57:55;100909.84;;;19.86;86.06
49813;BME280;35706;52.100;5.056;2023-06-19T04:58:56;100909.88;;;19.92;85.70
49813;BME280;35706;52.100;5.056;2023-06-19T04:59:59;100907.56;;;19.83;86.06
49813;BME280;35706;52.100;5.056;2023-06-19T05:00:59;100904.28;;;19.87;85.84
49813;BME280;35706;52.100;5.056;2023-06-19T05:02:00;100909.69;;;19.94;85.19
49813;BME280;35706;52.100;5.056;2023-06-19T05:03:00;100923.41;;;19.91;85.42
49813;BME280;35706;52.100;5.056;2023-06-19T05:04:00;100908.28;;;19.98;84.94
49813;BME280;35706;52.100;5.056;2023-06-19T05:05:01;100907.56;;;19.83;85.46
49813;BME280;35706;52.100;5.056;2023-06-19T05:06:03;100915.38;;;19.84;85.50
49813;BME280;35706;52.100;5.056;2023-06-19T05:07:03;100912.66;;;19.78;85.49
49813;BME280;35706;52.100;5.056;2023-06-19T05:08:04;100924.19;;;19.85;85.15
49813;BME280;35706;52.100;5.056;2023-06-19T05:09:04;100917.75;;;19.72;85.50
49813;BME280;35706;52.100;5.056;2023-06-19T05:10:05;100939.84;;;19.66;85.96
49813;BME280;35706;52.100;5.056;2023-06-19T05:11:06;100916.41;;;19.62;86.22
49813;BME280;35706;52.100;5.056;2023-06-19T05:12:07;100916.41;;;19.83;85.13
49813;BME280;35706;52.100;5.056;2023-06-19T05:13:07;100927.88;;;19.84;84.98
49813;BME280;35706;52.100;5.056;2023-06-19T05:14:08;100928.69;;;19.84;84.15
49813;BME280;35706;52.100;5.056;2023-06-19T05:15:08;100920.03;;;19.76;84.46
49813;BME280;35706;52.100;5.056;2023-06-19T05:16:10;100935.22;;;19.75;84.83
49813;BME280;35706;52.100;5.056;2023-06-19T05:17:10;100927.97;;;19.69;84.84
49813;BME280;35706;52.100;5.056;2023-06-19T05:18:10;100923.22;;;19.64;85.11
49813;BME280;35706;52.100;5.056;2023-06-19T05:19:11;100925.81;;;19.79;84.26
49813;BME280;35706;52.100;5.056;2023-06-19T05:20:11;100922.16;;;19.87;83.85
49813;BME280;35706;52.100;5.056;2023-06-19T05:21:12;100940.97;;;19.79;83.76